sensor_id;sensor_type;location;lat;lon;timestamp;temperature;humidity
11934;DHT22;6026;48.784;9.198;2024-02-15T00:02:09;11.40;99.90
11934;DHT22;6026;48.784;9.198;2024-02-15T00:04:36;11.40;99.90
11934;DHT22;6026;48.784;9.198;2024-02-15T00:07:01;11.40;99.90
11934;DHT22;6026;48.784;9.198;2024-02-15T00:09:27;11.30;99.90
11934;DHT22;6026;48.784;9.198;2024-02-15T00:11:53;11.40;99.90
11934;DHT22;6026;48.784;9.198;2024-02-15T00:14:19;11.40;99.90
11934;DHT22;6026;48.784;9.198;2024-02-15T00:16:45;11.30;99.90
11934;DHT22;6026;48.784;9.198;2024-02-15T00:19:11;11.30;99.90
11934;DHT22;6026;48.784;9.198;2024-02-15T00:21:36;11.30;99.90
11934;DHT22;6026;48.784;9.198;2024-02-15T00:24:02;11.30;99.90
11934;DHT22;6026;48.784;9.198;2024-02-15T00:26:28;11.30;99.90
11934;DHT22;6026;48.784;9.198;2024-02-15T00:28:53;11.30;99.90
11934;DHT22;6026;48.784;9.198;2024-02-15T00:31:19;11.30;99.90
11934;DHT22;6026;48.784;9.198;2024-02-15T00:33:44;11.30;99.90
11934;DHT22;6026;48.784;9.198;2024-02-15T00:36:10;11.30;99.90
11934;DHT22;6026;48.784;9.198;2024-02-15T00:38:36;11.30;99.90
11934;DHT22;6026;48.784;9.198;2024-02-15T00:41:02;11.30;99.90
11934;DHT22;6026;48.784;9.198;2024-02-15T00:43:27;11.30;99.90
11934;DHT22;6026;48.784;9.198;2024-02-15T00:45:53;11.30;99.90
11934;DHT22;6026;48.784;9.198;2024-02-15T00:48:19;11.40;99.90
11934;DHT22;6026;48.784;9.198;2024-02-15T00:50:44;11.40;99.90
11934;DHT22;6026;48.784;9.198;2024-02-15T00:53:10;11.40;99.90
11934;DHT22;6026;48.784;9.198;2024-02-15T00:55:35;11.40;99.90
11934;DHT22;6026;48.784;9.198;2024-02-15T00:58:01;11.40;99.90
11934;DHT22;6026;48.784;9.198;2024-02-15T01:00:28;11.30;99.90
11934;DHT22;6026;48.784;9.198;2024-02-15T01:02:54;11.30;99.90
11934;DHT22;6026;48.784;9.198;2024-02-15T01:05:19;11.30;99.90
11934;DHT22;6026;48.784;9.198;2024-02-15T01:07:45;11.30;99.90
11934;DHT22;6026;48.784;9.198;2024-02-15T01:10:11;11.30;99.90
11934;DHT22;6026;48.784;9.198;2024-02-15T01:12:36;11.40;99.90
11934;DHT22;6026;48.784;9.198;2024-02-15T01:15:02;11.30;99.90
11934;DHT22;6026;48.784;9.198;2024-02-15T01:17:28;11.30;99.90
11934;DHT22;6026;48.784;9.198;2024-02-15T01:19:54;11.30;99.90
11934;DHT22;6026;48.784;9.198;2024-02-15T01:22:20;11.30;99.90
11934;DHT22;6026;48.784;9.198;2024-02-15T01:24:49;11.30;99.90
11934;DHT22;6026;48.784;9.198;2024-02-15T01:27:14;11.30;99.90
11934;DHT22;6026;48.784;9.198;2024-02-15T01:29:40;11.20;99.90
11934;DHT22;6026;48.784;9.198;2024-02-15T01:32:05;11.20;99.90
11934;DHT22;6026;48.784;9.198;2024-02-15T01:34:31;11.20;99.90
11934;DHT22;6026;48.784;9.198;2024-02-15T01:36:56;11.20;99.90
11934;DHT22;6026;48.784;9.198;2024-02-15T01:39:22;11.20;99.90
11934;DHT22;6026;48.784;9.198;2024-02-15T01:41:48;11.20;99.90
11934;DHT22;6026;48.784;9.198;2024-02-15T01:44:17;11.20;99.90
11934;DHT22;6026;48.784;9.198;2024-02-15T01:46:44;11.10;99.90
11934;DHT22;6026;48.784;9.198;2024-02-15T01:49:11;11.00;99.90
11934;DHT22;6026;48.784;9.198;2024-02-15T01:51:37;11.00;99.90
11934;DHT22;6026;48.784;9.198;2024-02-15T01:54:03;11.00;99.90
11934;DHT22;6026;48.784;9.198;2024-02-15T01:56:30;10.90;99.90
11934;DHT22;6026;48.784;9.198;2024-02-15T01:58:57;10.90;99.90
11934;DHT22;6026;48.784;9.198;2024-02-15T02:01:23;10.80;99.90
11934;DHT22;6026;48.784;9.198;2024-02-15T02:03:49;10.70;99.90
11934;DHT22;6026;48.784;9.198;2024-02-15T02:06:14;10.60;99.90
11934;DHT22;6026;48.784;9.198;2024-02-15T02:08:41;10.50;99.90
11934;DHT22;6026;48.784;9.198;2024-02-15T02:11:06;10.40;99.90
11934;DHT22;6026;48.784;9.198;2024-02-15T02:13:32;10.40;99.90
11934;DHT22;6026;48.784;9.198;2024-02-15T02:15:58;10.30;99.90
11934;DHT22;6026;48.784;9.198;2024-02-15T02:18:25;10.30;99.90
11934;DHT22;6026;48.784;9.198;2024-02-15T02:20:50;10.30;99.90
11934;DHT22;6026;48.784;9.198;2024-02-15T02:23:17;10.30;99.90
11934;DHT22;6026;48.784;9.198;2024-02-15T02:25:45;10.30;99.90
11934;DHT22;6026;48.784;9.198;2024-02-15T02:28:15;10.30;99.90
11934;DHT22;6026;48.784;9.198;2024-02-15T02:30:42;10.20;99.90
11934;DHT22;6026;48.784;9.198;2024-02-15T02:33:11;10.30;99.90
11934;DHT22;6026;48.784;9.198;2024-02-15T02:35:44;10.20;99.90
11934;DHT22;6026;48.784;9.198;2024-02-15T02:38:10;10.20;99.90
11934;DHT22;6026;48.784;9.198;2024-02-15T02:40:35;10.10;99.90
11934;DHT22;6026;48.784;9.198;2024-02-15T02:43:01;10.10;99.90
11934;DHT22;6026;48.784;9.198;2024-02-15T02:45:27;10.10;99.90
11934;DHT22;6026;48.784;9.198;2024-02-15T02:47:53;10.00;99.90
11934;DHT22;6026;48.784;9.198;2024-02-15T02:50:20;10.00;99.90
11934;DHT22;6026;48.784;9.198;2024-02-15T02:52:46;10.00;99.90
11934;DHT22;6026;48.784;9.198;2024-02-15T02:55:14;9.90;99.90
11934;DHT22;6026;48.784;9.198;2024-02-15T02:57:39;9.90;99.90
11934;DHT22;6026;48.784;9.198;2024-02-15T03:00:07;9.90;99.90
11934;DHT22;6026;48.784;9.198;2024-02-15T03:02:36;9.80;99.90
11934;DHT22;6026;48.784;9.198;2024-02-15T03:05:04;9.80;99.90
11934;DHT22;6026;48.784;9.198;2024-02-15T03:07:32;9.70;99.90
11934;DHT22;6026;48.784;9.198;2024-02-15T03:09:58;9.70;99.90
11934;DHT22;6026;48.784;9.198;2024-02-15T03:12:24;9.70;99.90
11934;DHT22;6026;48.784;9.198;2024-02-15T03:14:52;9.60;99.90
11934;DHT22;6026;48.784;9.198;2024-02-15T03:17:18;9.60;99.90
11934;DHT22;6026;48.784;9.198;2024-02-15T03:19:43;9.60;99.90
11934;DHT22;6026;48.784;9.198;2024-02-15T03:22:09;9.60;99.90
11934;DHT22;6026;48.784;9.198;2024-02-15T03:24:34;9.50;99.90
11934;DHT22;6026;48.784;9.198;2024-02-15T03:27:00;9.50;99.90
11934;DHT22;6026;48.784;9.198;2024-02-15T03:29:26;9.50;99.90
11934;DHT22;6026;48.784;9.198;2024-02-15T03:31:51;9.50;99.90
11934;DHT22;6026;48.784;9.198;2024-02-15T03:34:19;9.40;99.90
11934;DHT22;6026;48.784;9.198;2024-02-15T03:36:47;9.40;99.90
11934;DHT22;6026;48.784;9.198;2024-02-15T03:39:19;9.40;99.90
11934;DHT22;6026;48.784;9.198;2024-02-15T03:41:45;9.40;99.90
11934;DHT22;6026;48.784;9.198;2024-02-15T03:44:14;9.30;99.90
11934;DHT22;6026;48.784;9.198;2024-02-15T03:46:40;9.30;99.90
11934;DHT22;6026;48.784;9.198;2024-02-15T03:49:06;9.30;99.90
11934;DHT22;6026;48.784;9.198;2024-02-15T03:51:34;9.20;99.90
11934;DHT22;6026;48.784;9.198;2024-02-15T03:53:59;9.30;99.90
11934;DHT22;6026;48.784;9.198;2024-02-15T03:56:25;9.20;99.90
11934;DHT22;6026;48.784;9.198;2024-02-15T03:58:50;9.30;99.90
11934;DHT22;6026;48.784;9.198;2024-02-15T04:01:16;9.30;99.90
11934;DHT22;6026;48.784;9.198;2024-02-15T04:03:42;9.30;99.90
11934;DHT22;6026;48.784;9.198;2024-02-15T04:06:08;9.30;99.90
11934;DHT22;6026;48.784;9.198;2024-02-15T04:08:35;9.30;99.90
11934;DHT22;6026;48.784;9.198;2024-02-15T04:11:05;9.30;99.90
11934;DHT22;6026;48.784;9.198;2024-02-15T04:13:33;9.40;99.90
11934;DHT22;6026;48.784;9.198;2024-02-15T04:15:58;9.50;99.90
11934;DHT22;6026;48.784;9.198;2024-02-15T04:18:24;9.50;99.90
11934;DHT22;6026;48.784;9.198;2024-02-15T04:20:55;9.50;99.90
11934;DHT22;6026;48.784;9.198;2024-02-15T04:23:20;9.60;99.90
11934;DHT22;6026;48.784;9.198;2024-02-15T04:25:46;9.60;99.90
11934;DHT22;6026;48.784;9.198;2024-02-15T04:28:16;9.70;99.90
11934;DHT22;6026;48.784;9.198;2024-02-15T04:30:42;9.70;99.90
11934;DHT22;6026;48.784;9.198;2024-02-15T04:33:07;9.70;99.90
11934;DHT22;6026;48.784;9.198;2024-02-15T04:35:33;9.80;99.90
11934;DHT22;6026;48.784;9.198;2024-02-15T04:37:59;9.80;99.90
11934;DHT22;6026;48.784;9.198;2024-02-15T04:40:24;9.90;99.90
11934;DHT22;6026;48.784;9.198;2024-02-15T04:42:51;9.90;99.90
11934;DHT22;6026;48.784;9.198;2024-02-15T04:45:16;10.00;99.90
11934;DHT22;6026;48.784;9.198;2024-02-15T04:47:42;10.00;99.90
11934;DHT22;6026;48.784;9.198;2024-02-15T04:50:08;9.90;99.90
11934;DHT22;6026;48.784;9.198;2024-02-15T04:52:34;9.90;99.90
11934;DHT22;6026;48.784;9.198;2024-02-15T04:55:00;10.00;99.90
11934;DHT22;6026;48.784;9.198;2024-02-15T04:57:26;10.00;99.90
11934;DHT22;6026;48.784;9.198;2024-02-15T04:59:56;10.00;99.90
11934;DHT22;6026;48.784;9.198;2024-02-15T05:02:25;10.00;99.90
11934;DHT22;6026;48.784;9.198;2024-02-15T05:04:51;10.00;99.90
11934;DHT22;6026;48.784;9.198;2024-02-15T05:07:22;10.00;99.90
11934;DHT22;6026;48.784;9.198;2024-02-15T05:09:48;10.00;99.90
11934;DHT22;6026;48.784;9.198;2024-02-15T05:12:21;10.00;99.90
11934;DHT22;6026;48.784;9.198;2024-02-15T05:14:48;10.10;99.90
11934;DHT22;6026;48.784;9.198;2024-02-15T05:17:14;10.10;99.90
11934;DHT22;6026;48.784;9.198;2024-02-15T05:19:39;10.10;99.90
11934;DHT22;6026;48.784;9.198;2024-02-15T05:22:05;10.10;99.90
11934;DHT22;6026;48.784;9.198;2024-02-15T05:24:31;10.20;99.90
11934;DHT22;6026;48.784;9.198;2024-02-15T05:26:57;10.10;99.90
11934;DHT22;6026;48.784;9.198;2024-02-15T05:29:23;10.10;99.90
11934;DHT22;6026;48.784;9.198;2024-02-15T05:31:48;10.20;99.90
11934;DHT22;6026;48.784;9.198;2024-02-15T05:34:17;10.10;99.90
11934;DHT22;6026;48.784;9.198;2024-02-15T05:36:42;10.10;99.90
11934;DHT22;6026;48.784;9.198;2024-02-15T05:39:08;10.20;99.90
11934;DHT22;6026;48.784;9.198;2024-02-15T05:41:36;10.20;99.90
11934;DHT22;6026;48.784;9.198;2024-02-15T05:44:02;10.20;99.90
11934;DHT22;6026;48.784;9.198;2024-02-15T05:46:32;10.20;99.90
11934;DHT22;6026;48.784;9.198;2024-02-15T05:48:57;10.20;99.90
11934;DHT22;6026;48.784;9.198;2024-02-15T05:51:23;10.30;99.90
11934;DHT22;6026;48.784;9.198;2024-02-15T05:53:49;10.30;99.90
11934;DHT22;6026;48.784;9.198;2024-02-15T05:56:15;10.30;99.90
11934;DHT22;6026;48.784;9.198;2024-02-15T05:58:41;10.30;99.90
11934;DHT22;6026;48.784;9.198;2024-02-15T06:01:07;10.30;99.90
11934;DHT22;6026;48.784;9.198;2024-02-15T06:03:38;10.30;99.90
11934;DHT22;6026;48.784;9.198;2024-02-15T06:06:06;10.30;99.90
11934;DHT22;6026;48.784;9.198;2024-02-15T06:08:35;10.20;99.90
11934;DHT22;6026;48.784;9.198;2024-02-15T06:11:01;10.20;99.90
11934;DHT22;6026;48.784;9.198;2024-02-15T06:13:27;10.20;99.90
11934;DHT22;6026;48.784;9.198;2024-02-15T06:15:53;10.10;99.90
11934;DHT22;6026;48.784;9.198;2024-02-15T06:18:27;10.10;99.90
11934;DHT22;6026;48.784;9.198;2024-02-15T06:20:57;10.10;99.90
11934;DHT22;6026;48.784;9.198;2024-02-15T06:23:24;10.10;99.90
11934;DHT22;6026;48.784;9.198;2024-02-15T06:25:52;10.10;99.90
11934;DHT22;6026;48.784;9.198;2024-02-15T06:28:22;10.10;99.90
11934;DHT22;6026;48.784;9.198;2024-02-15T06:31:07;10.10;99.90
11934;DHT22;6026;48.784;9.198;2024-02-15T06:33:52;10.10;99.90
11934;DHT22;6026;48.784;9.198;2024-02-15T06:36:54;10.10;99.90
11934;DHT22;6026;48.784;9.198;2024-02-15T06:39:46;10.00;99.90
11934;DHT22;6026;48.784;9.198;2024-02-15T06:42:13;10.10;99.90
11934;DHT22;6026;48.784;9.198;2024-02-15T06:44:47;10.00;99.90
11934;DHT22;6026;48.784;9.198;2024-02-15T06:47:14;10.00;99.90
11934;DHT22;6026;48.784;9.198;2024-02-15T06:49:42;10.00;99.90
11934;DHT22;6026;48.784;9.198;2024-02-15T06:52:10;10.00;99.90
11934;DHT22;6026;48.784;9.198;2024-02-15T06:54:38;10.00;99.90
11934;DHT22;6026;48.784;9.198;2024-02-15T06:57:04;10.00;99.90
11934;DHT22;6026;48.784;9.198;2024-02-15T06:59:30;10.10;99.90
11934;DHT22;6026;48.784;9.198;2024-02-15T07:02:00;10.10;99.90
11934;DHT22;6026;48.784;9.198;2024-02-15T07:04:26;10.10;99.90
11934;DHT22;6026;48.784;9.198;2024-02-15T07:06:52;10.20;99.90
11934;DHT22;6026;48.784;9.198;2024-02-15T07:09:23;10.30;99.90
11934;DHT22;6026;48.784;9.198;2024-02-15T07:11:50;10.30;99.90
11934;DHT22;6026;48.784;9.198;2024-02-15T07:14:16;10.40;99.90
11934;DHT22;6026;48.784;9.198;2024-02-15T07:16:46;10.40;99.90
11934;DHT22;6026;48.784;9.198;2024-02-15T07:19:13;10.50;99.90
11934;DHT22;6026;48.784;9.198;2024-02-15T07:21:39;10.70;99.90
11934;DHT22;6026;48.784;9.198;2024-02-15T07:24:05;10.80;99.90
11934;DHT22;6026;48.784;9.198;2024-02-15T07:26:30;10.80;99.90
11934;DHT22;6026;48.784;9.198;2024-02-15T07:28:56;10.90;99.90
11934;DHT22;6026;48.784;9.198;2024-02-15T07:31:23;10.80;99.90
11934;DHT22;6026;48.784;9.198;2024-02-15T07:33:51;10.90;99.90
11934;DHT22;6026;48.784;9.198;2024-02-15T07:36:23;10.90;99.90
11934;DHT22;6026;48.784;9.198;2024-02-15T07:38:53;10.90;99.90
11934;DHT22;6026;48.784;9.198;2024-02-15T07:41:23;10.90;99.90
11934;DHT22;6026;48.784;9.198;2024-02-15T07:43:49;11.00;99.90
11934;DHT22;6026;48.784;9.198;2024-02-15T07:46:16;10.90;99.90
11934;DHT22;6026;48.784;9.198;2024-02-15T07:48:45;11.10;99.90
11934;DHT22;6026;48.784;9.198;2024-02-15T07:51:19;11.20;99.90
11934;DHT22;6026;48.784;9.198;2024-02-15T07:53:45;11.40;99.90
11934;DHT22;6026;48.784;9.198;2024-02-15T07:56:11;11.70;99.90
11934;DHT22;6026;48.784;9.198;2024-02-15T07:58:45;12.10;99.90
11934;DHT22;6026;48.784;9.198;2024-02-15T08:01:14;12.50;99.90
11934;DHT22;6026;48.784;9.198;2024-02-15T08:03:40;13.00;99.90
11934;DHT22;6026;48.784;9.198;2024-02-15T08:06:16;13.40;99.90
11934;DHT22;6026;48.784;9.198;2024-02-15T08:08:43;14.10;99.90
11934;DHT22;6026;48.784;9.198;2024-02-15T08:11:13;14.50;99.90
11934;DHT22;6026;48.784;9.198;2024-02-15T08:13:45;14.90;99.90
11934;DHT22;6026;48.784;9.198;2024-02-15T08:16:15;15.40;99.90
11934;DHT22;6026;48.784;9.198;2024-02-15T08:18:42;16.00;99.90
11934;DHT22;6026;48.784;9.198;2024-02-15T08:21:09;16.10;99.90
11934;DHT22;6026;48.784;9.198;2024-02-15T08:23:36;16.50;99.90
11934;DHT22;6026;48.784;9.198;2024-02-15T08:26:01;16.40;99.90
11934;DHT22;6026;48.784;9.198;2024-02-15T08:28:27;16.30;99.90
11934;DHT22;6026;48.784;9.198;2024-02-15T08:30:54;16.30;99.90
11934;DHT22;6026;48.784;9.198;2024-02-15T08:33:21;16.20;99.90
11934;DHT22;6026;48.784;9.198;2024-02-15T08:35:47;16.30;99.90
11934;DHT22;6026;48.784;9.198;2024-02-15T08:38:12;16.50;99.90
11934;DHT22;6026;48.784;9.198;2024-02-15T08:40:38;16.70;99.90
11934;DHT22;6026;48.784;9.198;2024-02-15T08:43:03;16.90;99.90
11934;DHT22;6026;48.784;9.198;2024-02-15T08:45:29;17.10;99.90
11934;DHT22;6026;48.784;9.198;2024-02-15T08:47:55;17.20;99.90
11934;DHT22;6026;48.784;9.198;2024-02-15T08:50:20;17.30;99.90
11934;DHT22;6026;48.784;9.198;2024-02-15T08:52:49;17.30;99.90
11934;DHT22;6026;48.784;9.198;2024-02-15T08:55:15;16.90;99.90
11934;DHT22;6026;48.784;9.198;2024-02-15T08:57:42;16.70;99.90
11934;DHT22;6026;48.784;9.198;2024-02-15T09:00:10;16.50;99.90
11934;DHT22;6026;48.784;9.198;2024-02-15T09:02:47;16.30;99.90
11934;DHT22;6026;48.784;9.198;2024-02-15T09:05:14;16.10;99.90
11934;DHT22;6026;48.784;9.198;2024-02-15T09:07:46;16.00;99.90
11934;DHT22;6026;48.784;9.198;2024-02-15T09:10:16;15.90;99.90
11934;DHT22;6026;48.784;9.198;2024-02-15T09:12:43;16.00;99.90
11934;DHT22;6026;48.784;9.198;2024-02-15T09:15:10;16.10;99.90
11934;DHT22;6026;48.784;9.198;2024-02-15T09:17:36;16.00;99.90
11934;DHT22;6026;48.784;9.198;2024-02-15T09:20:10;15.60;99.90
11934;DHT22;6026;48.784;9.198;2024-02-15T09:22:50;15.40;99.90
11934;DHT22;6026;48.784;9.198;2024-02-15T09:25:19;15.50;99.90
11934;DHT22;6026;48.784;9.198;2024-02-15T09:27:45;16.00;99.90
11934;DHT22;6026;48.784;9.198;2024-02-15T09:30:13;16.60;99.90
11934;DHT22;6026;48.784;9.198;2024-02-15T09:32:40;17.00;99.90
11934;DHT22;6026;48.784;9.198;2024-02-15T09:35:07;17.60;99.90
11934;DHT22;6026;48.784;9.198;2024-02-15T09:37:38;18.00;99.90
11934;DHT22;6026;48.784;9.198;2024-02-15T09:40:08;18.40;99.90
11934;DHT22;6026;48.784;9.198;2024-02-15T09:42:35;18.80;99.90
11934;DHT22;6026;48.784;9.198;2024-02-15T09:45:02;19.00;99.90
11934;DHT22;6026;48.784;9.198;2024-02-15T09:47:34;19.50;99.90
11934;DHT22;6026;48.784;9.198;2024-02-15T09:50:00;19.80;99.90
11934;DHT22;6026;48.784;9.198;2024-02-15T09:52:26;19.90;99.90
11934;DHT22;6026;48.784;9.198;2024-02-15T09:54:53;20.00;99.90
11934;DHT22;6026;48.784;9.198;2024-02-15T09:57:20;19.80;99.90
11934;DHT22;6026;48.784;9.198;2024-02-15T09:59:46;20.10;99.90
11934;DHT22;6026;48.784;9.198;2024-02-15T10:02:12;20.20;99.90
11934;DHT22;6026;48.784;9.198;2024-02-15T10:04:42;20.30;99.90
11934;DHT22;6026;48.784;9.198;2024-02-15T10:07:08;20.30;99.90
11934;DHT22;6026;48.784;9.198;2024-02-15T10:09:34;20.50;99.90
11934;DHT22;6026;48.784;9.198;2024-02-15T10:12:02;20.50;99.90
11934;DHT22;6026;48.784;9.198;2024-02-15T10:14:29;20.70;99.90
11934;DHT22;6026;48.784;9.198;2024-02-15T10:16:56;20.90;99.90
11934;DHT22;6026;48.784;9.198;2024-02-15T10:19:22;20.90;99.90
11934;DHT22;6026;48.784;9.198;2024-02-15T10:21:52;21.10;99.90
11934;DHT22;6026;48.784;9.198;2024-02-15T10:24:21;21.10;99.90
11934;DHT22;6026;48.784;9.198;2024-02-15T10:26:49;21.10;99.90
11934;DHT22;6026;48.784;9.198;2024-02-15T10:29:15;21.10;99.90
11934;DHT22;6026;48.784;9.198;2024-02-15T10:31:59;21.10;99.90
11934;DHT22;6026;48.784;9.198;2024-02-15T10:34:25;21.20;99.90
11934;DHT22;6026;48.784;9.198;2024-02-15T10:37:13;21.40;99.90
11934;DHT22;6026;48.784;9.198;2024-02-15T10:39:39;21.50;99.90
11934;DHT22;6026;48.784;9.198;2024-02-15T10:42:06;21.40;99.90
11934;DHT22;6026;48.784;9.198;2024-02-15T10:44:32;21.30;99.90
11934;DHT22;6026;48.784;9.198;2024-02-15T10:46:59;21.40;99.90
11934;DHT22;6026;48.784;9.198;2024-02-15T10:49:31;21.40;99.90
11934;DHT22;6026;48.784;9.198;2024-02-15T10:51:58;21.40;99.90
11934;DHT22;6026;48.784;9.198;2024-02-15T10:54:47;21.60;99.90
11934;DHT22;6026;48.784;9.198;2024-02-15T10:57:20;21.80;99.90
11934;DHT22;6026;48.784;9.198;2024-02-15T10:59:55;21.90;99.90
11934;DHT22;6026;48.784;9.198;2024-02-15T11:02:30;22.00;99.90
11934;DHT22;6026;48.784;9.198;2024-02-15T11:05:07;21.90;99.90
11934;DHT22;6026;48.784;9.198;2024-02-15T11:07:37;21.90;99.90
11934;DHT22;6026;48.784;9.198;2024-02-15T11:10:05;21.70;99.90
11934;DHT22;6026;48.784;9.198;2024-02-15T11:12:36;21.80;99.90
11934;DHT22;6026;48.784;9.198;2024-02-15T11:15:03;21.40;99.90
11934;DHT22;6026;48.784;9.198;2024-02-15T11:17:48;21.50;99.90
11934;DHT22;6026;48.784;9.198;2024-02-15T11:23:00;21.90;99.90
11934;DHT22;6026;48.784;9.198;2024-02-15T11:25:37;21.80;99.90
11934;DHT22;6026;48.784;9.198;2024-02-15T11:30:49;22.30;99.90
11934;DHT22;6026;48.784;9.198;2024-02-15T11:33:32;22.60;99.90
11934;DHT22;6026;48.784;9.198;2024-02-15T11:36:07;22.80;99.90
11934;DHT22;6026;48.784;9.198;2024-02-15T11:38:34;23.00;99.90
11934;DHT22;6026;48.784;9.198;2024-02-15T11:41:04;23.20;99.90
11934;DHT22;6026;48.784;9.198;2024-02-15T11:43:51;23.40;99.90
11934;DHT22;6026;48.784;9.198;2024-02-15T11:46:21;23.30;99.90
11934;DHT22;6026;48.784;9.198;2024-02-15T11:48:50;23.40;99.90
11934;DHT22;6026;48.784;9.198;2024-02-15T11:51:35;22.80;99.90
11934;DHT22;6026;48.784;9.198;2024-02-15T11:54:12;20.80;99.90
11934;DHT22;6026;48.784;9.198;2024-02-15T11:59:09;20.70;99.90
11934;DHT22;6026;48.784;9.198;2024-02-15T12:01:44;20.30;99.90
11934;DHT22;6026;48.784;9.198;2024-02-15T12:04:29;20.60;99.90
11934;DHT22;6026;48.784;9.198;2024-02-15T12:07:14;20.60;99.90
11934;DHT22;6026;48.784;9.198;2024-02-15T12:09:59;20.50;99.90
11934;DHT22;6026;48.784;9.198;2024-02-15T12:12:53;20.80;99.90
11934;DHT22;6026;48.784;9.198;2024-02-15T12:15:38;20.90;99.90
11934;DHT22;6026;48.784;9.198;2024-02-15T12:18:22;20.80;99.90
11934;DHT22;6026;48.784;9.198;2024-02-15T12:21:09;20.80;99.90
11934;DHT22;6026;48.784;9.198;2024-02-15T12:23:37;20.30;99.90
11934;DHT22;6026;48.784;9.198;2024-02-15T12:26:03;20.50;99.90
11934;DHT22;6026;48.784;9.198;2024-02-15T12:28:30;20.60;99.90
11934;DHT22;6026;48.784;9.198;2024-02-15T12:30:56;20.50;99.90
11934;DHT22;6026;48.784;9.198;2024-02-15T12:33:24;20.40;99.90
11934;DHT22;6026;48.784;9.198;2024-02-15T12:36:06;20.60;99.90
11934;DHT22;6026;48.784;9.198;2024-02-15T12:38:32;20.20;99.90
11934;DHT22;6026;48.784;9.198;2024-02-15T12:40:59;19.80;99.90
11934;DHT22;6026;48.784;9.198;2024-02-15T12:43:28;19.00;99.90
11934;DHT22;6026;48.784;9.198;2024-02-15T12:45:53;19.10;99.90
11934;DHT22;6026;48.784;9.198;2024-02-15T12:48:19;18.90;99.90
11934;DHT22;6026;48.784;9.198;2024-02-15T12:50:45;18.80;99.90
11934;DHT22;6026;48.784;9.198;2024-02-15T12:53:11;19.30;99.90
11934;DHT22;6026;48.784;9.198;2024-02-15T12:55:39;19.30;99.90
11934;DHT22;6026;48.784;9.198;2024-02-15T12:58:14;19.10;99.90
11934;DHT22;6026;48.784;9.198;2024-02-15T13:00:41;18.90;99.90
11934;DHT22;6026;48.784;9.198;2024-02-15T13:03:08;19.00;99.90
11934;DHT22;6026;48.784;9.198;2024-02-15T13:05:37;18.80;99.90
11934;DHT22;6026;48.784;9.198;2024-02-15T13:08:03;18.80;99.90
11934;DHT22;6026;48.784;9.198;2024-02-15T13:10:38;18.80;99.90
11934;DHT22;6026;48.784;9.198;2024-02-15T13:13:07;18.90;99.90
11934;DHT22;6026;48.784;9.198;2024-02-15T13:15:35;18.60;99.90
11934;DHT22;6026;48.784;9.198;2024-02-15T13:18:02;18.70;99.90
11934;DHT22;6026;48.784;9.198;2024-02-15T13:20:31;18.60;99.90
11934;DHT22;6026;48.784;9.198;2024-02-15T13:23:01;18.60;99.90
11934;DHT22;6026;48.784;9.198;2024-02-15T13:25:37;18.70;99.90
11934;DHT22;6026;48.784;9.198;2024-02-15T13:28:05;18.40;99.90
11934;DHT22;6026;48.784;9.198;2024-02-15T13:30:30;18.10;99.90
11934;DHT22;6026;48.784;9.198;2024-02-15T13:32:56;18.20;99.90
11934;DHT22;6026;48.784;9.198;2024-02-15T13:35:22;18.20;99.90
11934;DHT22;6026;48.784;9.198;2024-02-15T13:37:53;18.00;99.90
11934;DHT22;6026;48.784;9.198;2024-02-15T13:40:28;17.90;99.90
11934;DHT22;6026;48.784;9.198;2024-02-15T13:42:57;17.70;99.90
11934;DHT22;6026;48.784;9.198;2024-02-15T13:45:38;17.80;99.90
11934;DHT22;6026;48.784;9.198;2024-02-15T13:48:05;17.70;99.90
11934;DHT22;6026;48.784;9.198;2024-02-15T13:50:32;17.70;99.90
11934;DHT22;6026;48.784;9.198;2024-02-15T13:52:58;18.00;99.90
11934;DHT22;6026;48.784;9.198;2024-02-15T13:55:24;18.20;99.90
11934;DHT22;6026;48.784;9.198;2024-02-15T13:57:51;18.40;99.90
11934;DHT22;6026;48.784;9.198;2024-02-15T14:00:18;18.30;99.90
11934;DHT22;6026;48.784;9.198;2024-02-15T14:02:54;18.20;99.90
11934;DHT22;6026;48.784;9.198;2024-02-15T14:05:25;18.10;99.90
11934;DHT22;6026;48.784;9.198;2024-02-15T14:08:00;18.00;99.90
11934;DHT22;6026;48.784;9.198;2024-02-15T14:10:28;18.30;99.90
11934;DHT22;6026;48.784;9.198;2024-02-15T14:12:54;18.20;99.90
11934;DHT22;6026;48.784;9.198;2024-02-15T14:15:21;18.40;99.90
11934;DHT22;6026;48.784;9.198;2024-02-15T14:17:47;18.40;99.90
11934;DHT22;6026;48.784;9.198;2024-02-15T14:20:13;18.40;99.90
11934;DHT22;6026;48.784;9.198;2024-02-15T14:22:44;18.00;99.90
11934;DHT22;6026;48.784;9.198;2024-02-15T14:25:10;18.00;99.90
11934;DHT22;6026;48.784;9.198;2024-02-15T14:27:41;17.80;99.90
11934;DHT22;6026;48.784;9.198;2024-02-15T14:30:08;18.00;99.90
11934;DHT22;6026;48.784;9.198;2024-02-15T14:32:52;17.80;99.90
11934;DHT22;6026;48.784;9.198;2024-02-15T14:35:31;17.90;99.90
11934;DHT22;6026;48.784;9.198;2024-02-15T14:38:03;17.90;99.90
11934;DHT22;6026;48.784;9.198;2024-02-15T14:40:33;17.90;99.90
11934;DHT22;6026;48.784;9.198;2024-02-15T14:43:02;17.80;99.90
11934;DHT22;6026;48.784;9.198;2024-02-15T14:45:33;17.80;99.90
11934;DHT22;6026;48.784;9.198;2024-02-15T14:48:02;17.80;99.90
11934;DHT22;6026;48.784;9.198;2024-02-15T14:50:29;17.80;99.90
11934;DHT22;6026;48.784;9.198;2024-02-15T14:52:55;17.90;99.90
11934;DHT22;6026;48.784;9.198;2024-02-15T14:55:21;18.00;99.90
11934;DHT22;6026;48.784;9.198;2024-02-15T14:57:48;17.80;99.90
11934;DHT22;6026;48.784;9.198;2024-02-15T15:00:16;17.90;99.90
11934;DHT22;6026;48.784;9.198;2024-02-15T15:02:47;17.90;99.90
11934;DHT22;6026;48.784;9.198;2024-02-15T15:05:13;17.90;99.90
11934;DHT22;6026;48.784;9.198;2024-02-15T15:07:57;17.80;99.90
11934;DHT22;6026;48.784;9.198;2024-02-15T15:10:43;17.80;99.90
11934;DHT22;6026;48.784;9.198;2024-02-15T15:13:28;17.80;99.90
11934;DHT22;6026;48.784;9.198;2024-02-15T15:15:54;17.80;99.90
11934;DHT22;6026;48.784;9.198;2024-02-15T15:18:19;17.80;99.90
11934;DHT22;6026;48.784;9.198;2024-02-15T15:20:45;17.70;99.90
11934;DHT22;6026;48.784;9.198;2024-02-15T15:23:10;17.80;99.90
11934;DHT22;6026;48.784;9.198;2024-02-15T15:25:36;17.90;99.90
11934;DHT22;6026;48.784;9.198;2024-02-15T15:28:04;18.00;99.90
11934;DHT22;6026;48.784;9.198;2024-02-15T15:30:30;18.00;99.90
11934;DHT22;6026;48.784;9.198;2024-02-15T15:32:56;18.00;99.90
11934;DHT22;6026;48.784;9.198;2024-02-15T15:35:22;17.80;99.90
11934;DHT22;6026;48.784;9.198;2024-02-15T15:37:49;17.90;99.90
11934;DHT22;6026;48.784;9.198;2024-02-15T15:40:16;17.90;99.90
11934;DHT22;6026;48.784;9.198;2024-02-15T15:42:42;17.80;99.90
11934;DHT22;6026;48.784;9.198;2024-02-15T15:45:09;17.70;99.90
11934;DHT22;6026;48.784;9.198;2024-02-15T15:47:35;17.40;99.90
11934;DHT22;6026;48.784;9.198;2024-02-15T15:50:01;17.30;99.90
11934;DHT22;6026;48.784;9.198;2024-02-15T15:52:27;17.30;99.90
11934;DHT22;6026;48.784;9.198;2024-02-15T15:54:53;17.20;99.90
11934;DHT22;6026;48.784;9.198;2024-02-15T15:57:19;17.20;99.90
11934;DHT22;6026;48.784;9.198;2024-02-15T15:59:46;17.10;99.90
11934;DHT22;6026;48.784;9.198;2024-02-15T16:02:14;16.70;99.90
11934;DHT22;6026;48.784;9.198;2024-02-15T16:04:46;16.70;99.90